createdAt,value
2022-08-26T04:03:09.958Z,1006.97
2022-08-26T04:04:09.880Z,1006.97
2022-08-26T04:05:09.877Z,1006.99
2022-08-26T04:06:09.871Z,1006.95
2022-08-26T04:07:09.831Z,1006.94
2022-08-26T04:08:10.070Z,1006.97
2022-08-26T04:09:09.811Z,1007.00
2022-08-26T04:10:09.843Z,1007.00
2022-08-26T04:11:09.775Z,1006.99
2022-08-26T04:12:09.778Z,1006.99
2022-08-26T04:13:10.042Z,1007.02
2022-08-26T04:14:09.753Z,1007.02
2022-08-26T04:15:09.747Z,1007.01
2022-08-26T04:16:10.278Z,1007.04
2022-08-26T04:17:09.717Z,1007.03
2022-08-26T04:18:09.715Z,1007.02
2022-08-26T04:19:09.722Z,1007.01
2022-08-26T04:20:09.680Z,1007.02
2022-08-26T04:21:09.669Z,1007.01
2022-08-26T04:22:09.644Z,1007.00
2022-08-26T04:23:09.668Z,1006.98
2022-08-26T04:24:12.091Z,1006.97
2022-08-26T04:25:09.631Z,1007.05
2022-08-26T04:26:09.611Z,1006.94
2022-08-26T04:27:09.601Z,1007.00
2022-08-26T04:28:09.575Z,1006.99
2022-08-26T04:29:09.627Z,1006.93
2022-08-26T04:30:09.563Z,1006.93
2022-08-26T04:31:09.630Z,1006.92
2022-08-26T04:32:09.553Z,1006.90
2022-08-26T04:33:12.902Z,1006.90
2022-08-26T04:34:09.525Z,1006.91
2022-08-26T04:35:09.500Z,1006.90
2022-08-26T04:36:09.501Z,1006.91
2022-08-26T04:37:09.481Z,1006.91
2022-08-26T04:38:09.490Z,1006.93
2022-08-26T04:39:09.500Z,1006.96
2022-08-26T04:40:09.519Z,1006.93
2022-08-26T04:41:15.263Z,1006.90
2022-08-26T04:42:09.456Z,1006.97
2022-08-26T04:43:09.488Z,1006.93
2022-08-26T04:44:09.441Z,1006.95
2022-08-26T04:45:10.406Z,1006.96
2022-08-26T04:46:09.430Z,1006.94
2022-08-26T04:47:09.371Z,1006.98
2022-08-26T04:48:11.067Z,1006.96
2022-08-26T04:49:16.503Z,1006.93
2022-08-26T04:50:09.379Z,1006.98
2022-08-26T04:51:09.380Z,1007.00
2022-08-26T04:52:09.355Z,1006.99
2022-08-26T04:53:09.442Z,1007.01
2022-08-26T04:54:09.317Z,1007.03
2022-08-26T04:55:09.327Z,1007.05
2022-08-26T04:56:09.280Z,1007.06
2022-08-26T04:57:09.279Z,1007.05
2022-08-26T04:58:10.462Z,1007.09
2022-08-26T04:59:14.954Z,1007.08
2022-08-26T05:00:09.235Z,1007.14
2022-08-26T05:01:09.236Z,1007.10
2022-08-26T05:02:09.289Z,1007.14
2022-08-26T05:03:10.578Z,1007.12
2022-08-26T05:04:09.287Z,1007.08
2022-08-26T05:05:09.199Z,1007.08
2022-08-26T05:06:09.448Z,1007.13
2022-08-26T05:07:09.153Z,1007.11
2022-08-26T05:08:09.180Z,1007.12
2022-08-26T05:09:09.150Z,1007.13
2022-08-26T05:10:09.133Z,1007.09
2022-08-26T05:11:09.438Z,1007.13
2022-08-26T05:12:09.172Z,1007.14
2022-08-26T05:13:11.111Z,1007.16
2022-08-26T05:14:09.090Z,1007.13
2022-08-26T05:15:09.078Z,1007.17
2022-08-26T05:16:09.094Z,1007.15
2022-08-26T05:17:09.046Z,1007.19
2022-08-26T05:18:09.053Z,1007.18
2022-08-26T05:19:09.038Z,1007.16
2022-08-26T05:20:09.028Z,1007.19
2022-08-26T05:21:09.020Z,1007.21
2022-08-26T05:22:09.023Z,1007.17
2022-08-26T05:23:09.275Z,1007.19
2022-08-26T05:24:08.971Z,1007.24
2022-08-26T05:25:08.993Z,1007.19
2022-08-26T05:26:08.953Z,1007.18
2022-08-26T05:27:11.445Z,1007.22
2022-08-26T05:28:08.938Z,1007.20
2022-08-26T05:29:08.930Z,1007.20
2022-08-26T05:30:08.919Z,1007.19
2022-08-26T05:31:08.935Z,1007.27
2022-08-26T05:32:08.883Z,1007.19
2022-08-26T05:33:09.198Z,1007.20
2022-08-26T05:34:08.868Z,1007.19
2022-08-26T05:35:09.153Z,1007.24
2022-08-26T05:36:08.855Z,1007.21
2022-08-26T05:37:08.856Z,1007.21
2022-08-26T05:38:12.392Z,1007.21
2022-08-26T05:39:10.631Z,1007.23
2022-08-26T05:40:08.873Z,1007.20
2022-08-26T05:41:08.802Z,1007.20
2022-08-26T05:42:08.790Z,1007.22
2022-08-26T05:43:09.175Z,1007.21
2022-08-26T05:44:08.806Z,1007.23
2022-08-26T05:45:08.746Z,1007.23
2022-08-26T05:46:08.896Z,1007.26
2022-08-26T05:47:08.788Z,1007.24
2022-08-26T05:48:08.742Z,1007.26
2022-08-26T05:49:12.814Z,1007.22
2022-08-26T05:50:08.701Z,1007.23
2022-08-26T05:51:08.698Z,1007.24
2022-08-26T05:52:08.877Z,1007.24
2022-08-26T05:53:08.935Z,1007.24
2022-08-26T05:54:08.673Z,1007.27
2022-08-26T05:55:08.648Z,1007.26
2022-08-26T05:56:08.642Z,1007.25
2022-08-26T05:57:08.631Z,1007.27
2022-08-26T05:58:08.621Z,1007.27
2022-08-26T05:59:14.289Z,1007.31
2022-08-26T06:00:08.620Z,1007.27
2022-08-26T06:01:09.394Z,1007.31
2022-08-26T06:02:08.580Z,1007.30
2022-08-26T06:03:08.797Z,1007.32
2022-08-26T06:04:08.551Z,1007.34
2022-08-26T06:05:08.548Z,1007.39
2022-08-26T06:06:08.562Z,1007.34
2022-08-26T06:07:09.939Z,1007.38
2022-08-26T06:08:08.506Z,1007.33
2022-08-26T06:09:09.348Z,1007.35
2022-08-26T06:10:31.025Z,1007.33
2022-08-26T06:11:08.492Z,1007.36
2022-08-26T06:12:08.491Z,1007.34
2022-08-26T06:13:09.384Z,1007.39
2022-08-26T06:14:08.433Z,1007.35
2022-08-26T06:15:08.452Z,1007.40
2022-08-26T06:16:08.474Z,1007.40
2022-08-26T06:17:08.401Z,1007.38
2022-08-26T06:18:08.396Z,1007.38
2022-08-26T06:19:10.524Z,1007.38
2022-08-26T06:20:08.442Z,1007.40
2022-08-26T06:21:08.384Z,1007.42
2022-08-26T06:22:08.333Z,1007.40
2022-08-26T06:23:08.476Z,1007.44
2022-08-26T06:24:08.331Z,1007.37
2022-08-26T06:25:08.314Z,1007.34
2022-08-26T06:26:08.314Z,1007.34
2022-08-26T06:27:08.298Z,1007.40
2022-08-26T06:28:08.278Z,1007.39
2022-08-26T06:29:08.262Z,1007.36
2022-08-26T06:30:08.272Z,1007.38
2022-08-26T06:31:08.320Z,1007.37
2022-08-26T06:32:08.755Z,1007.36
2022-08-26T06:33:08.373Z,1007.35
2022-08-26T06:34:10.719Z,1007.37
2022-08-26T06:35:12.244Z,1007.40
2022-08-26T06:36:08.192Z,1007.40
2022-08-26T06:37:08.229Z,1007.42
2022-08-26T06:38:08.190Z,1007.44
2022-08-26T06:39:08.156Z,1007.40
2022-08-26T06:40:08.198Z,1007.40
2022-08-26T06:41:08.157Z,1007.41
2022-08-26T06:42:08.113Z,1007.40
2022-08-26T06:43:08.229Z,1007.45
2022-08-26T06:44:08.123Z,1007.36
2022-08-26T06:45:08.091Z,1007.35
2022-08-26T06:46:08.130Z,1007.38
2022-08-26T06:47:08.072Z,1007.43
2022-08-26T06:48:08.049Z,1007.42
2022-08-26T06:49:08.052Z,1007.43
2022-08-26T06:50:08.050Z,1007.43
2022-08-26T06:51:08.034Z,1007.44
2022-08-26T06:52:08.016Z,1007.48
2022-08-26T06:53:08.345Z,1007.43
2022-08-26T06:54:07.998Z,1007.44
2022-08-26T06:55:07.997Z,1007.45
2022-08-26T06:56:07.986Z,1007.44
2022-08-26T06:57:07.950Z,1007.45
2022-08-26T06:58:07.959Z,1007.49
2022-08-26T06:59:08.904Z,1007.45
2022-08-26T07:00:07.982Z,1007.47
2022-08-26T07:01:11.519Z,1007.42
2022-08-26T07:02:08.120Z,1007.49
2022-08-26T07:03:08.232Z,1007.48
2022-08-26T07:04:10.598Z,1007.44
2022-08-26T07:05:07.866Z,1007.45
2022-08-26T07:06:07.870Z,1007.46
2022-08-26T07:07:07.851Z,1007.49
2022-08-26T07:08:09.125Z,1007.50
2022-08-26T07:09:09.863Z,1007.47
2022-08-26T07:10:07.825Z,1007.50
2022-08-26T07:11:07.815Z,1007.51
2022-08-26T07:12:07.791Z,1007.49
2022-08-26T07:13:08.129Z,1007.52
2022-08-26T07:14:07.817Z,1007.50
2022-08-26T07:15:07.785Z,1007.51
2022-08-26T07:16:07.802Z,1007.54
2022-08-26T07:17:11.052Z,1007.56
2022-08-26T07:18:07.738Z,1007.53
2022-08-26T07:19:11.001Z,1007.55
2022-08-26T07:20:07.706Z,1007.54
2022-08-26T07:21:07.727Z,1007.56
2022-08-26T07:22:08.652Z,1007.55
2022-08-26T07:23:07.843Z,1007.56
2022-08-26T07:24:07.729Z,1007.57
2022-08-26T07:25:07.647Z,1007.56
2022-08-26T07:26:07.652Z,1007.58
2022-08-26T07:27:08.626Z,1007.55
2022-08-26T07:28:07.624Z,1007.59
2022-08-26T07:29:07.630Z,1007.55
2022-08-26T07:30:07.596Z,1007.60
2022-08-26T07:31:09.632Z,1007.60
2022-08-26T07:32:07.615Z,1007.60
2022-08-26T07:33:08.650Z,1007.62
2022-08-26T07:34:07.552Z,1007.61
2022-08-26T07:35:07.568Z,1007.63
2022-08-26T07:36:07.536Z,1007.62
2022-08-26T07:37:08.843Z,1007.66
2022-08-26T07:38:07.511Z,1007.64
2022-08-26T07:39:08.459Z,1007.65
2022-08-26T07:40:07.515Z,1007.69
2022-08-26T07:41:07.478Z,1007.66
2022-08-26T07:42:08.536Z,1007.69
2022-08-26T07:43:07.647Z,1007.71
2022-08-26T07:44:07.441Z,1007.77
2022-08-26T07:45:07.435Z,1007.74
2022-08-26T07:46:07.424Z,1007.74
2022-08-26T07:47:10.043Z,1007.75
2022-08-26T07:48:07.406Z,1007.76
2022-08-26T07:49:07.424Z,1007.79
2022-08-26T07:50:07.397Z,1007.79
2022-08-26T07:51:07.367Z,1007.78
2022-08-26T07:52:07.359Z,1007.77
2022-08-26T07:53:07.486Z,1007.77
2022-08-26T07:54:07.371Z,1007.79
2022-08-26T07:55:07.344Z,1007.75
2022-08-26T07:56:07.310Z,1007.79
2022-08-26T07:57:09.265Z,1007.79
2022-08-26T07:58:07.299Z,1007.79
2022-08-26T07:59:13.576Z,1007.77
2022-08-26T08:00:07.280Z,1007.79
2022-08-26T08:01:07.298Z,1007.77
2022-08-26T08:02:07.232Z,1007.76
2022-08-26T08:03:07.459Z,1007.78
2022-08-26T08:04:07.234Z,1007.74
2022-08-26T08:05:07.528Z,1007.79
2022-08-26T08:06:07.195Z,1007.78
2022-08-26T08:07:07.475Z,1007.79
2022-08-26T08:08:27.890Z,1007.79
2022-08-26T08:09:07.166Z,1007.80
2022-08-26T08:10:09.879Z,1007.83
2022-08-26T08:11:07.142Z,1007.78
2022-08-26T08:12:07.142Z,1007.80
2022-08-26T08:13:07.250Z,1007.78
2022-08-26T08:14:08.392Z,1007.80
2022-08-26T08:15:07.120Z,1007.75
2022-08-26T08:16:07.101Z,1007.77
2022-08-26T08:17:07.245Z,1007.80
2022-08-26T08:18:07.110Z,1007.79
2022-08-26T08:19:07.072Z,1007.80
2022-08-26T08:20:07.040Z,1007.78
2022-08-26T08:21:24.067Z,1007.77
2022-08-26T08:22:17.501Z,1007.79
2022-08-26T08:23:07.061Z,1007.81
2022-08-26T08:24:07.012Z,1007.84
2022-08-26T08:25:08.124Z,1007.81
2022-08-26T08:26:07.002Z,1007.79
2022-08-26T08:27:06.983Z,1007.83
2022-08-26T08:28:07.043Z,1007.83
2022-08-26T08:29:06.962Z,1007.83
2022-08-26T08:30:06.951Z,1007.81
2022-08-26T08:31:07.020Z,1007.85
2022-08-26T08:32:06.980Z,1007.88
2022-08-26T08:33:06.897Z,1007.87
2022-08-26T08:34:06.911Z,1007.84
2022-08-26T08:35:10.797Z,1007.83
2022-08-26T08:36:06.881Z,1007.83
2022-08-26T08:37:10.078Z,1007.86
2022-08-26T08:38:06.994Z,1007.86
2022-08-26T08:39:06.835Z,1007.83
2022-08-26T08:40:06.891Z,1007.83
2022-08-26T08:41:06.883Z,1007.85
2022-08-26T08:42:06.835Z,1007.84
2022-08-26T08:43:06.999Z,1007.80
2022-08-26T08:44:06.796Z,1007.85
2022-08-26T08:45:06.772Z,1007.81
2022-08-26T08:46:06.813Z,1007.84
2022-08-26T08:47:06.766Z,1007.84
2022-08-26T08:48:06.943Z,1007.83
2022-08-26T08:49:06.738Z,1007.86
2022-08-26T08:50:06.722Z,1007.87
2022-08-26T08:51:06.702Z,1007.87
2022-08-26T08:52:06.717Z,1007.85
2022-08-26T08:53:08.964Z,1007.85
2022-08-26T08:54:06.707Z,1007.85
2022-08-26T08:55:11.063Z,1007.84
2022-08-26T08:56:06.655Z,1007.83
2022-08-26T08:57:06.646Z,1007.88
2022-08-26T08:58:08.124Z,1007.83
2022-08-26T08:59:06.637Z,1007.80
2022-08-26T09:00:06.614Z,1007.79
2022-08-26T09:01:06.725Z,1007.81
2022-08-26T09:02:06.673Z,1007.79
2022-08-26T09:03:06.574Z,1007.84
2022-08-26T09:04:06.588Z,1007.79
2022-08-26T09:05:06.554Z,1007.79
2022-08-26T09:06:07.460Z,1007.81
2022-08-26T09:07:06.548Z,1007.82
2022-08-26T09:08:06.745Z,1007.85
2022-08-26T09:09:06.509Z,1007.84
2022-08-26T09:10:06.497Z,1007.80
2022-08-26T09:11:06.840Z,1007.82
2022-08-26T09:12:06.526Z,1007.76
2022-08-26T09:13:06.461Z,1007.85
2022-08-26T09:14:06.492Z,1007.82
2022-08-26T09:15:06.445Z,1007.80
2022-08-26T09:16:06.417Z,1007.82
2022-08-26T09:17:06.499Z,1007.83
2022-08-26T09:18:06.420Z,1007.84
2022-08-26T09:19:06.406Z,1007.88
2022-08-26T09:20:06.386Z,1007.84
2022-08-26T09:21:06.421Z,1007.87
2022-08-26T09:22:09.372Z,1007.84
2022-08-26T09:23:06.392Z,1007.88
2022-08-26T09:24:06.388Z,1007.90
2022-08-26T09:25:06.350Z,1007.90
2022-08-26T09:26:06.309Z,1007.92
2022-08-26T09:27:06.951Z,1007.87
2022-08-26T09:28:06.360Z,1007.88
2022-08-26T09:29:06.349Z,1007.89
2022-08-26T09:30:06.311Z,1007.88
2022-08-26T09:31:10.653Z,1007.88
2022-08-26T09:32:06.252Z,1007.85
2022-08-26T09:33:06.645Z,1007.83
2022-08-26T09:34:06.254Z,1007.83
2022-08-26T09:35:06.345Z,1007.87
2022-08-26T09:36:06.224Z,1007.89
2022-08-26T09:37:06.205Z,1007.85
2022-08-26T09:38:09.083Z,1007.87
2022-08-26T09:39:06.176Z,1007.86
2022-08-26T09:40:06.214Z,1007.86
2022-08-26T09:41:06.161Z,1007.83
2022-08-26T09:42:06.154Z,1007.85
2022-08-26T09:43:06.186Z,1007.85
2022-08-26T09:44:06.145Z,1007.86
2022-08-26T09:45:06.164Z,1007.80
2022-08-26T09:46:06.147Z,1007.88
2022-08-26T09:47:06.095Z,1007.86
2022-08-26T09:48:06.146Z,1007.83
2022-08-26T09:49:06.079Z,1007.85
2022-08-26T09:50:09.405Z,1007.88
2022-08-26T09:51:06.064Z,1007.88
2022-08-26T09:52:06.039Z,1007.88
2022-08-26T09:53:09.933Z,1007.88
2022-08-26T09:54:08.027Z,1007.84
2022-08-26T09:55:06.016Z,1007.84
2022-08-26T09:56:06.000Z,1007.87
2022-08-26T09:57:05.980Z,1007.86
2022-08-26T09:58:08.770Z,1007.89
2022-08-26T09:59:06.485Z,1007.86
2022-08-26T10:00:05.961Z,1007.81
2022-08-26T10:01:06.064Z,1007.83
2022-08-26T10:02:05.938Z,1007.84
2022-08-26T10:03:05.913Z,1007.85
2022-08-26T10:04:05.928Z,1007.81
2022-08-26T10:05:09.226Z,1007.83
2022-08-26T10:06:05.901Z,1007.82
2022-08-26T10:07:05.888Z,1007.82
2022-08-26T10:08:05.885Z,1007.83
2022-08-26T10:09:09.659Z,1007.82
2022-08-26T10:10:05.849Z,1007.84
2022-08-26T10:11:05.824Z,1007.81
2022-08-26T10:12:05.859Z,1007.83
2022-08-26T10:13:05.868Z,1007.77
2022-08-26T10:14:05.848Z,1007.81
2022-08-26T10:15:05.792Z,1007.77
2022-08-26T10:16:05.771Z,1007.78
2022-08-26T10:17:07.004Z,1007.80
2022-08-26T10:18:05.879Z,1007.76
2022-08-26T10:19:05.780Z,1007.79
2022-08-26T10:20:05.756Z,1007.73
2022-08-26T10:21:05.746Z,1007.71
2022-08-26T10:22:05.698Z,1007.78
2022-08-26T10:23:06.588Z,1007.76
2022-08-26T10:24:05.698Z,1007.78
2022-08-26T10:25:05.728Z,1007.70
2022-08-26T10:26:05.667Z,1007.76
2022-08-26T10:27:05.675Z,1007.74
2022-08-26T10:28:05.845Z,1007.72
2022-08-26T10:29:05.646Z,1007.68
2022-08-26T10:30:05.642Z,1007.68
2022-08-26T10:31:05.609Z,1007.70
2022-08-26T10:32:05.646Z,1007.70
2022-08-26T10:33:05.663Z,1007.68
2022-08-26T10:34:05.581Z,1007.69
2022-08-26T10:35:05.781Z,1007.65
2022-08-26T10:36:05.554Z,1007.75
2022-08-26T10:37:15.726Z,1007.73
2022-08-26T10:38:05.585Z,1007.73
2022-08-26T10:39:05.514Z,1007.69
2022-08-26T10:40:05.572Z,1007.70
2022-08-26T10:41:10.410Z,1007.66
2022-08-26T10:42:05.506Z,1007.71
2022-08-26T10:43:11.146Z,1007.71
2022-08-26T10:44:05.477Z,1007.70
2022-08-26T10:45:06.429Z,1007.70
2022-08-26T10:46:05.477Z,1007.67
2022-08-26T10:47:05.451Z,1007.71
2022-08-26T10:48:05.468Z,1007.69
2022-08-26T10:49:06.512Z,1007.69
2022-08-26T10:50:05.995Z,1007.69
2022-08-26T10:51:06.035Z,1007.69
2022-08-26T10:52:12.368Z,1007.76
2022-08-26T10:53:09.559Z,1007.74
2022-08-26T10:54:05.361Z,1007.77
2022-08-26T10:55:05.347Z,1007.72
2022-08-26T10:56:06.533Z,1007.72
2022-08-26T10:57:05.353Z,1007.75
2022-08-26T10:58:07.280Z,1007.71
2022-08-26T10:59:05.322Z,1007.72
2022-08-26T11:00:05.304Z,1007.69
2022-08-26T11:01:10.467Z,1007.70
2022-08-26T11:02:05.258Z,1007.67
2022-08-26T11:03:05.325Z,1007.62
2022-08-26T11:04:05.313Z,1007.67
2022-08-26T11:05:05.227Z,1007.69
2022-08-26T11:06:05.255Z,1007.64
2022-08-26T11:07:05.267Z,1007.63
2022-08-26T11:08:05.293Z,1007.60
2022-08-26T11:09:05.214Z,1007.58
2022-08-26T11:10:05.194Z,1007.60
2022-08-26T11:11:05.194Z,1007.59
2022-08-26T11:12:10.108Z,1007.63
2022-08-26T11:13:05.157Z,1007.57
2022-08-26T11:14:05.144Z,1007.60
2022-08-26T11:15:05.355Z,1007.64
2022-08-26T11:16:05.393Z,1007.59
2022-08-26T11:17:05.143Z,1007.57
2022-08-26T11:18:05.108Z,1007.55
2022-08-26T11:19:05.094Z,1007.55
2022-08-26T11:20:09.245Z,1007.52
2022-08-26T11:21:05.081Z,1007.61
2022-08-26T11:22:05.083Z,1007.53
2022-08-26T11:23:05.040Z,1007.53
2022-08-26T11:24:05.031Z,1007.56
2022-08-26T11:25:05.019Z,1007.57
2022-08-26T11:26:05.046Z,1007.58
2022-08-26T11:27:05.018Z,1007.61
2022-08-26T11:28:05.019Z,1007.55
2022-08-26T11:29:04.997Z,1007.52
2022-08-26T11:30:04.980Z,1007.56
2022-08-26T11:31:04.973Z,1007.52
2022-08-26T11:32:04.979Z,1007.56
2022-08-26T11:33:04.935Z,1007.53
2022-08-26T11:34:04.930Z,1007.58
2022-08-26T11:35:04.949Z,1007.56
2022-08-26T11:36:07.496Z,1007.60
2022-08-26T11:37:04.912Z,1007.60
2022-08-26T11:38:04.905Z,1007.63
2022-08-26T11:39:04.878Z,1007.61
2022-08-26T11:40:04.967Z,1007.57
2022-08-26T11:41:04.873Z,1007.56
2022-08-26T11:42:04.859Z,1007.59
2022-08-26T11:43:04.890Z,1007.59
2022-08-26T11:44:04.803Z,1007.52
2022-08-26T11:45:04.885Z,1007.50
2022-08-26T11:46:04.852Z,1007.59
2022-08-26T11:47:04.817Z,1007.55
2022-08-26T11:48:04.791Z,1007.58
2022-08-26T11:49:04.764Z,1007.56
2022-08-26T11:50:04.739Z,1007.56
2022-08-26T11:51:04.776Z,1007.51
2022-08-26T11:52:04.959Z,1007.52
2022-08-26T11:53:06.322Z,1007.55
2022-08-26T11:54:04.705Z,1007.42
2022-08-26T11:55:04.717Z,1007.46
2022-08-26T11:56:04.903Z,1007.45
2022-08-26T11:57:07.927Z,1007.45
2022-08-26T11:58:05.868Z,1007.41
2022-08-26T11:59:04.683Z,1007.43
2022-08-26T12:00:05.734Z,1007.40
2022-08-26T12:01:04.662Z,1007.41
2022-08-26T12:03:15.392Z,1007.42
2022-08-26T12:04:16.486Z,1007.41
2022-08-26T12:05:16.295Z,1007.46
2022-08-26T12:06:16.297Z,1007.51
2022-08-26T12:07:23.998Z,1007.44
2022-08-26T12:08:16.268Z,1007.43
2022-08-26T12:09:16.215Z,1007.41
2022-08-26T12:10:16.223Z,1007.41
2022-08-26T12:11:16.208Z,1007.39
2022-08-26T12:12:16.198Z,1007.42
2022-08-26T12:13:16.183Z,1007.42
2022-08-26T12:14:16.176Z,1007.43
2022-08-26T12:15:16.184Z,1007.42
2022-08-26T12:16:16.211Z,1007.43
2022-08-26T12:17:16.186Z,1007.40
2022-08-26T12:18:16.131Z,1007.44
2022-08-26T12:19:16.118Z,1007.49
2022-08-26T12:20:16.150Z,1007.44
2022-08-26T12:21:16.145Z,1007.41
2022-08-26T12:22:16.135Z,1007.38
2022-08-26T12:23:16.071Z,1007.40
2022-08-26T12:24:16.078Z,1007.37
2022-08-26T12:25:16.053Z,1007.41
2022-08-26T12:26:16.033Z,1007.41
2022-08-26T12:27:16.032Z,1007.39
2022-08-26T12:28:16.024Z,1007.39
2022-08-26T12:29:20.332Z,1007.38
2022-08-26T12:30:19.161Z,1007.35
2022-08-26T12:31:16.043Z,1007.31
2022-08-26T12:32:16.011Z,1007.35
2022-08-26T12:33:22.649Z,1007.37
2022-08-26T12:34:17.889Z,1007.35
2022-08-26T12:35:15.986Z,1007.32
2022-08-26T12:36:15.938Z,1007.33
2022-08-26T12:37:15.914Z,1007.28
2022-08-26T12:38:15.913Z,1007.32
2022-08-26T12:39:15.955Z,1007.33
2022-08-26T12:40:16.009Z,1007.30
2022-08-26T12:41:15.907Z,1007.31
2022-08-26T12:42:15.877Z,1007.32
2022-08-26T12:43:15.891Z,1007.31
2022-08-26T12:44:15.847Z,1007.26
2022-08-26T12:45:15.832Z,1007.26
2022-08-26T12:46:15.840Z,1007.26
2022-08-26T12:47:15.821Z,1007.27
2022-08-26T12:48:15.887Z,1007.23
2022-08-26T12:49:15.786Z,1007.17
2022-08-26T12:50:15.820Z,1007.19
2022-08-26T12:51:15.771Z,1007.18
2022-08-26T12:52:15.779Z,1007.16
2022-08-26T12:53:15.741Z,1007.16
2022-08-26T12:54:15.742Z,1007.16
2022-08-26T12:55:15.720Z,1007.16
2022-08-26T12:56:15.720Z,1007.22
2022-08-26T12:57:15.728Z,1007.18
2022-08-26T12:58:15.707Z,1007.16
2022-08-26T12:59:16.446Z,1007.18
2022-08-26T13:00:15.680Z,1007.16
2022-08-26T13:01:15.856Z,1007.16
2022-08-26T13:02:15.836Z,1007.10
2022-08-26T13:03:15.643Z,1007.12
2022-08-26T13:04:15.832Z,1007.09
2022-08-26T13:05:16.303Z,1007.15
2022-08-26T13:06:16.328Z,1007.12
2022-08-26T13:07:15.589Z,1007.14
2022-08-26T13:08:15.631Z,1007.10
2022-08-26T13:09:15.589Z,1007.10
2022-08-26T13:10:15.564Z,1007.15
2022-08-26T13:11:15.555Z,1007.10
2022-08-26T13:12:15.553Z,1007.11
2022-08-26T13:13:15.563Z,1007.17
2022-08-26T13:14:21.275Z,1007.21
2022-08-26T13:15:15.511Z,1007.15
2022-08-26T13:16:15.570Z,1007.19
2022-08-26T13:17:15.516Z,1007.19
2022-08-26T13:18:15.477Z,1007.17
2022-08-26T13:19:15.529Z,1007.15
2022-08-26T13:20:15.455Z,1007.14
2022-08-26T13:21:15.480Z,1007.17
2022-08-26T13:22:15.442Z,1007.14
2022-08-26T13:23:15.629Z,1007.09
2022-08-26T13:24:15.406Z,1007.09
2022-08-26T13:25:15.413Z,1007.05
2022-08-26T13:26:15.385Z,1007.07
2022-08-26T13:27:15.415Z,1007.09
2022-08-26T13:28:15.392Z,1007.05
2022-08-26T13:29:15.391Z,1007.04
2022-08-26T13:30:15.368Z,1007.03
2022-08-26T13:31:15.448Z,1007.06
2022-08-26T13:32:15.363Z,1007.02
2022-08-26T13:33:15.323Z,1007.02
2022-08-26T13:34:15.304Z,1007.09
2022-08-26T13:35:15.358Z,1007.04
2022-08-26T13:36:15.320Z,1007.03
2022-08-26T13:37:15.291Z,1007.02
2022-08-26T13:38:32.951Z,1007.02
2022-08-26T13:39:15.266Z,1007.00
2022-08-26T13:40:15.425Z,1006.99
2022-08-26T13:41:15.252Z,1007.02
2022-08-26T13:42:15.231Z,1006.94
2022-08-26T13:43:15.216Z,1006.93
2022-08-26T13:44:15.204Z,1006.95
2022-08-26T13:45:15.219Z,1006.96
2022-08-26T13:46:15.243Z,1006.91
2022-08-26T13:47:15.181Z,1006.89
2022-08-26T13:48:15.189Z,1006.90
2022-08-26T13:49:15.160Z,1006.87
2022-08-26T13:50:15.209Z,1006.89
2022-08-26T13:51:15.145Z,1006.95
2022-08-26T13:52:15.130Z,1006.89
2022-08-26T13:53:15.146Z,1006.91
2022-08-26T13:54:15.087Z,1006.88
2022-08-26T13:55:15.137Z,1006.92
2022-08-26T13:56:15.111Z,1006.97
2022-08-26T13:57:15.074Z,1006.99
2022-08-26T13:58:15.055Z,1006.93
2022-08-26T13:59:15.045Z,1007.00
2022-08-26T14:00:15.050Z,1006.99
2022-08-26T14:02:14.265Z,1006.99
2022-08-26T14:03:15.268Z,1006.98
2022-08-26T14:04:15.244Z,1006.98
2022-08-26T14:05:15.223Z,1006.97
2022-08-26T14:06:15.215Z,1006.97
2022-08-26T14:07:15.181Z,1006.97
2022-08-26T14:08:15.191Z,1006.98
2022-08-26T14:09:15.216Z,1006.96
2022-08-26T14:10:15.161Z,1006.98
2022-08-26T14:11:15.220Z,1006.95
2022-08-26T14:12:15.156Z,1006.98
2022-08-26T14:13:15.142Z,1007.00
2022-08-26T14:14:15.130Z,1006.96
2022-08-26T14:15:15.119Z,1007.01
2022-08-26T14:16:15.124Z,1006.99
2022-08-26T14:17:15.107Z,1007.01
2022-08-26T14:18:15.082Z,1007.04
2022-08-26T14:19:15.075Z,1006.97
2022-08-26T14:20:15.085Z,1006.94
2022-08-26T14:21:15.100Z,1006.93
2022-08-26T14:22:15.046Z,1006.96
2022-08-26T14:23:15.119Z,1006.99
2022-08-26T14:24:15.002Z,1006.91
2022-08-26T14:25:15.006Z,1006.91
2022-08-26T14:26:28.524Z,1006.89
2022-08-26T14:27:14.997Z,1006.83
2022-08-26T14:28:15.053Z,1006.85
2022-08-26T14:29:16.693Z,1006.77
2022-08-26T14:30:14.943Z,1006.82
2022-08-26T14:31:14.966Z,1006.77
2022-08-26T14:32:14.948Z,1006.81
2022-08-26T14:33:14.931Z,1006.80
2022-08-26T14:34:14.906Z,1006.74
2022-08-26T14:35:14.907Z,1006.76
2022-08-26T14:36:14.916Z,1006.79
2022-08-26T14:37:15.509Z,1006.77
2022-08-26T14:38:14.865Z,1006.82
2022-08-26T14:39:14.849Z,1006.80
2022-08-26T14:40:14.938Z,1006.81
2022-08-26T14:41:14.849Z,1006.80
2022-08-26T14:42:14.861Z,1006.85
2022-08-26T14:43:14.802Z,1006.81
2022-08-26T14:44:14.815Z,1006.83
2022-08-26T14:45:14.807Z,1006.84
2022-08-26T14:46:14.838Z,1006.84
2022-08-26T14:47:14.885Z,1006.88
2022-08-26T14:48:14.782Z,1006.91
2022-08-26T14:49:14.745Z,1006.89
2022-08-26T14:50:14.730Z,1006.90
2022-08-26T14:51:14.723Z,1006.92
2022-08-26T14:52:14.769Z,1006.90
2022-08-26T14:53:14.711Z,1006.87
2022-08-26T14:54:14.745Z,1006.90
2022-08-26T14:55:14.696Z,1006.85
2022-08-26T14:56:16.707Z,1006.93
2022-08-26T14:57:14.636Z,1006.84
2022-08-26T14:58:14.647Z,1006.92
2022-08-26T14:59:14.623Z,1006.98
2022-08-26T15:00:14.629Z,1006.94
2022-08-26T15:01:14.667Z,1006.94
2022-08-26T15:02:32.535Z,1006.92
2022-08-26T15:04:14.571Z,1006.93
2022-08-26T15:05:14.565Z,1006.96
2022-08-26T15:06:14.587Z,1007.01
2022-08-26T15:07:14.550Z,1006.95
2022-08-26T15:08:14.536Z,1006.98
2022-08-26T15:09:14.525Z,1006.97
2022-08-26T15:10:14.501Z,1006.97
2022-08-26T15:11:14.537Z,1006.96
2022-08-26T15:12:14.524Z,1006.95
2022-08-26T15:13:14.469Z,1006.92
2022-08-26T15:14:19.221Z,1006.90
2022-08-26T15:15:14.478Z,1006.89
2022-08-26T15:16:14.529Z,1006.91
2022-08-26T15:17:14.429Z,1006.96
2022-08-26T15:18:14.434Z,1006.93
2022-08-26T15:19:14.410Z,1006.98
2022-08-26T15:20:14.424Z,1007.00
2022-08-26T15:21:14.400Z,1006.93
2022-08-26T15:22:14.391Z,1006.92
2022-08-26T15:23:14.461Z,1006.96
2022-08-26T15:24:14.343Z,1006.88
2022-08-26T15:25:14.324Z,1006.85
2022-08-26T15:26:14.328Z,1006.86
2022-08-26T15:27:14.325Z,1006.85
2022-08-26T15:28:14.334Z,1006.84
2022-08-26T15:29:14.307Z,1006.82
2022-08-26T15:30:14.280Z,1006.83
2022-08-26T15:31:14.315Z,1006.77
2022-08-26T15:32:14.269Z,1006.80
2022-08-26T15:33:14.863Z,1006.77
2022-08-26T15:34:16.776Z,1006.76
2022-08-26T15:35:14.212Z,1006.76
2022-08-26T15:36:14.206Z,1006.80
2022-08-26T15:37:14.203Z,1006.78
2022-08-26T15:38:14.181Z,1006.75
2022-08-26T15:39:14.202Z,1006.76
2022-08-26T15:40:14.237Z,1006.74
2022-08-26T15:41:14.163Z,1006.70
2022-08-26T15:42:14.147Z,1006.71
2022-08-26T15:43:27.802Z,1006.65
2022-08-26T15:44:14.150Z,1006.70
2022-08-26T15:45:14.128Z,1006.69
2022-08-26T15:46:14.162Z,1006.71
2022-08-26T15:47:14.080Z,1006.75
2022-08-26T15:48:14.312Z,1006.74
2022-08-26T15:49:18.420Z,1006.74
2022-08-26T15:50:14.067Z,1006.75
2022-08-26T15:51:14.038Z,1006.72
2022-08-26T15:52:20.564Z,1006.77
2022-08-26T15:53:14.036Z,1006.70
2022-08-26T15:54:14.075Z,1006.73
2022-08-26T15:55:13.992Z,1006.75
2022-08-26T15:56:14.015Z,1006.76
2022-08-26T15:57:16.418Z,1006.76
2022-08-26T15:58:13.974Z,1006.76
2022-08-26T15:59:14.026Z,1006.78
2022-08-26T16:00:13.955Z,1006.80
2022-08-26T16:01:14.009Z,1006.77
2022-08-26T16:02:14.010Z,1006.74
2022-08-26T16:03:13.913Z,1006.72
2022-08-26T16:04:13.916Z,1006.75
2022-08-26T16:05:13.885Z,1006.73
2022-08-26T16:06:13.950Z,1006.74
2022-08-26T16:07:13.874Z,1006.76
2022-08-26T16:08:13.854Z,1006.71
2022-08-26T16:09:13.841Z,1006.77
2022-08-26T16:10:13.841Z,1006.80
2022-08-26T16:11:13.844Z,1006.75